Airfield :
LOGIN :

Register | Disclaimer

   EN    FR    IT 

 










Legend :    VFR   Marginal VFR   IFR   Intensive IFR   Very Intensive IFR
Visi :
Ceiling :
>= 8 km
>= 3000ft
5 to 8 km
1000 to 3000 ft
1500m to 5 km
500 to 1000 ft
800 to 1500m
200 to 500 ft
< 800m
< 200 ft
Symbols :   Thunderstorms  Fog  Heavy snow  Heavy precipitations  Wind > 20 kt
SIGMETs :     Misc.  Thunderstorms  Icing  Turbulence  Mountain Waves  Volcanic Ashes







- Airport Elevation : 1768 ft


LEHC - Huesca Pirineos

CURRENT METAR :
  • 222000Z AUTO 25007KT 9999 NCD 23/12 Q1016

EXPIRED METARs :
  • 221930Z AUTO 25007KT 9999 NCD 25/11 Q1016
  • 221900Z AUTO 25008KT 230V290 9999 NCD 26/11 Q1015
  • 221830Z AUTO 25009KT 200V280 9999 NCD 27/10 Q1015
  • 221800Z AUTO 24007KT 200V290 9999 NCD 28/10 Q1014
  • 221730Z AUTO 26008KT 230V300 9999 NCD 28/10 Q1014

TAF TAF LEHC
Valid from the 22 at 09:00 until the 23 at 09:00 UTC


220800Z 2209/2309 25010KT 9999 FEW040 TX30/2214Z TN16/2305Z
TEMPO 2212/2220 26015G26KT
PROB30
TEMPO 2212/2218 FEW050CB
BECMG 2222/2224 09015KT
BECMG 2302/2304 VRB03KT
No reported NOTAMs for that airfield.
1 SIGMET reported for the Madrid FIR (LECM) :
 
SIGMET 3  cancelation
LECM SIGMET 1 VALID 220525/230000 LEVA
LECM MADRID FIR/UIR CNL SIGMET 3 212243/230000=



MET'MAP, your aeronautical weather chart ! - Copyright ORBIFLY December 2007 - Disclaimer

ORBIFLY MET'MAP TEAM :

Programming & Development : Alexandra Zaïnal
Concept & Development : Baudouin d'Aumeries
Co-Development & Prog : Marc-Olivier Méhu
Technical & hardware support : Manuel Goepfert

Contact : metmap@orbifly.com




SOURCES & CREDITS :

   NOAA